sensor_id;sensor_type;location;lat;lon;timestamp;temperature;humidity
44166;DHT22;30476;53.468;9.826;2023-12-20T00:01:23;7.50;99.90
44166;DHT22;30476;53.468;9.826;2023-12-20T00:03:48;7.50;99.90
44166;DHT22;30476;53.468;9.826;2023-12-20T00:06:14;7.50;99.90
44166;DHT22;30476;53.468;9.826;2023-12-20T00:08:40;7.40;99.90
44166;DHT22;30476;53.468;9.826;2023-12-20T00:11:06;7.40;99.90
44166;DHT22;30476;53.468;9.826;2023-12-20T00:13:31;7.40;99.90
44166;DHT22;30476;53.468;9.826;2023-12-20T00:15:57;7.40;99.90
44166;DHT22;30476;53.468;9.826;2023-12-20T00:18:23;7.30;99.90
44166;DHT22;30476;53.468;9.826;2023-12-20T00:20:49;7.30;99.90
44166;DHT22;30476;53.468;9.826;2023-12-20T00:23:15;7.30;99.90
44166;DHT22;30476;53.468;9.826;2023-12-20T00:25:41;7.30;99.90
44166;DHT22;30476;53.468;9.826;2023-12-20T00:28:06;7.20;99.90
44166;DHT22;30476;53.468;9.826;2023-12-20T00:30:32;7.20;99.90
44166;DHT22;30476;53.468;9.826;2023-12-20T00:32:58;7.20;99.90
44166;DHT22;30476;53.468;9.826;2023-12-20T00:35:24;7.20;99.90
44166;DHT22;30476;53.468;9.826;2023-12-20T00:37:50;7.20;99.90
44166;DHT22;30476;53.468;9.826;2023-12-20T00:40:15;7.20;99.90
44166;DHT22;30476;53.468;9.826;2023-12-20T00:42:41;7.20;99.90
44166;DHT22;30476;53.468;9.826;2023-12-20T00:45:07;7.20;99.90
44166;DHT22;30476;53.468;9.826;2023-12-20T00:47:33;7.20;99.90
44166;DHT22;30476;53.468;9.826;2023-12-20T00:49:59;7.20;99.90
44166;DHT22;30476;53.468;9.826;2023-12-20T00:52:25;7.20;99.90
44166;DHT22;30476;53.468;9.826;2023-12-20T00:54:51;7.20;99.90
44166;DHT22;30476;53.468;9.826;2023-12-20T00:57:17;7.20;99.90
44166;DHT22;30476;53.468;9.826;2023-12-20T00:59:43;7.20;99.90
44166;DHT22;30476;53.468;9.826;2023-12-20T01:02:09;7.20;99.90
44166;DHT22;30476;53.468;9.826;2023-12-20T01:04:35;7.20;99.90
44166;DHT22;30476;53.468;9.826;2023-12-20T01:07:01;7.10;99.90
44166;DHT22;30476;53.468;9.826;2023-12-20T01:09:27;7.10;99.90
44166;DHT22;30476;53.468;9.826;2023-12-20T01:11:53;7.10;99.90
44166;DHT22;30476;53.468;9.826;2023-12-20T01:14:19;7.10;99.90
44166;DHT22;30476;53.468;9.826;2023-12-20T01:16:45;7.10;99.90
44166;DHT22;30476;53.468;9.826;2023-12-20T01:19:11;7.00;99.90
44166;DHT22;30476;53.468;9.826;2023-12-20T01:21:37;7.00;99.90
44166;DHT22;30476;53.468;9.826;2023-12-20T01:24:03;7.00;99.90
44166;DHT22;30476;53.468;9.826;2023-12-20T01:26:28;6.90;99.90
44166;DHT22;30476;53.468;9.826;2023-12-20T01:28:54;6.90;99.90
44166;DHT22;30476;53.468;9.826;2023-12-20T01:31:20;6.90;99.90
44166;DHT22;30476;53.468;9.826;2023-12-20T01:33:45;6.90;99.90
44166;DHT22;30476;53.468;9.826;2023-12-20T01:36:11;6.80;99.90
44166;DHT22;30476;53.468;9.826;2023-12-20T01:38:37;6.80;99.90
44166;DHT22;30476;53.468;9.826;2023-12-20T01:41:03;6.70;99.90
44166;DHT22;30476;53.468;9.826;2023-12-20T01:43:29;6.70;99.90
44166;DHT22;30476;53.468;9.826;2023-12-20T01:45:57;6.70;99.90
44166;DHT22;30476;53.468;9.826;2023-12-20T01:48:26;6.70;99.90
44166;DHT22;30476;53.468;9.826;2023-12-20T01:50:54;6.70;99.90
44166;DHT22;30476;53.468;9.826;2023-12-20T01:53:21;6.70;99.90
44166;DHT22;30476;53.468;9.826;2023-12-20T01:55:50;6.70;99.90
44166;DHT22;30476;53.468;9.826;2023-12-20T01:58:18;6.70;99.90
44166;DHT22;30476;53.468;9.826;2023-12-20T02:00:44;6.70;99.90
44166;DHT22;30476;53.468;9.826;2023-12-20T02:03:11;6.70;99.90
44166;DHT22;30476;53.468;9.826;2023-12-20T02:05:38;6.60;99.90
44166;DHT22;30476;53.468;9.826;2023-12-20T02:08:04;6.70;99.90
44166;DHT22;30476;53.468;9.826;2023-12-20T02:10:31;6.60;99.90
44166;DHT22;30476;53.468;9.826;2023-12-20T02:12:57;6.60;99.90
44166;DHT22;30476;53.468;9.826;2023-12-20T02:15:23;6.60;99.90
44166;DHT22;30476;53.468;9.826;2023-12-20T02:17:49;6.60;99.90
44166;DHT22;30476;53.468;9.826;2023-12-20T02:20:15;6.60;99.90
44166;DHT22;30476;53.468;9.826;2023-12-20T02:22:41;6.60;99.90
44166;DHT22;30476;53.468;9.826;2023-12-20T02:25:07;6.60;99.90
44166;DHT22;30476;53.468;9.826;2023-12-20T02:27:33;6.50;99.90
44166;DHT22;30476;53.468;9.826;2023-12-20T02:29:59;6.60;99.90
44166;DHT22;30476;53.468;9.826;2023-12-20T02:32:25;6.50;99.90
44166;DHT22;30476;53.468;9.826;2023-12-20T02:34:51;6.50;99.90
44166;DHT22;30476;53.468;9.826;2023-12-20T02:37:17;6.50;99.90
44166;DHT22;30476;53.468;9.826;2023-12-20T02:39:43;6.50;99.90
44166;DHT22;30476;53.468;9.826;2023-12-20T02:42:09;6.50;99.90
44166;DHT22;30476;53.468;9.826;2023-12-20T02:44:34;6.50;99.90
44166;DHT22;30476;53.468;9.826;2023-12-20T02:47:00;6.50;99.90
44166;DHT22;30476;53.468;9.826;2023-12-20T02:49:26;6.50;99.90
44166;DHT22;30476;53.468;9.826;2023-12-20T02:51:52;6.50;99.90
44166;DHT22;30476;53.468;9.826;2023-12-20T02:54:17;6.50;99.90
44166;DHT22;30476;53.468;9.826;2023-12-20T02:56:46;6.50;99.90
44166;DHT22;30476;53.468;9.826;2023-12-20T02:59:12;6.50;99.90
44166;DHT22;30476;53.468;9.826;2023-12-20T03:01:45;6.50;99.90
44166;DHT22;30476;53.468;9.826;2023-12-20T03:04:11;6.50;99.90
44166;DHT22;30476;53.468;9.826;2023-12-20T03:06:37;6.50;99.90
44166;DHT22;30476;53.468;9.826;2023-12-20T03:09:03;6.50;99.90
44166;DHT22;30476;53.468;9.826;2023-12-20T03:11:29;6.50;99.90
44166;DHT22;30476;53.468;9.826;2023-12-20T03:13:55;6.50;99.90
44166;DHT22;30476;53.468;9.826;2023-12-20T03:16:21;6.50;99.90
44166;DHT22;30476;53.468;9.826;2023-12-20T03:18:47;6.60;99.90
44166;DHT22;30476;53.468;9.826;2023-12-20T03:21:13;6.60;99.90
44166;DHT22;30476;53.468;9.826;2023-12-20T03:23:38;6.50;99.90
44166;DHT22;30476;53.468;9.826;2023-12-20T03:26:07;6.50;99.90
44166;DHT22;30476;53.468;9.826;2023-12-20T03:28:33;6.60;99.90
44166;DHT22;30476;53.468;9.826;2023-12-20T03:30:58;6.50;99.90
44166;DHT22;30476;53.468;9.826;2023-12-20T03:33:24;6.50;99.90
44166;DHT22;30476;53.468;9.826;2023-12-20T03:35:50;6.50;99.90
44166;DHT22;30476;53.468;9.826;2023-12-20T03:38:16;6.60;99.90
44166;DHT22;30476;53.468;9.826;2023-12-20T03:40:41;6.60;99.90
44166;DHT22;30476;53.468;9.826;2023-12-20T03:43:07;6.60;99.90
44166;DHT22;30476;53.468;9.826;2023-12-20T03:45:33;6.60;99.90
44166;DHT22;30476;53.468;9.826;2023-12-20T03:47:58;6.60;99.90
44166;DHT22;30476;53.468;9.826;2023-12-20T03:50:25;6.60;99.90
44166;DHT22;30476;53.468;9.826;2023-12-20T03:52:51;6.60;99.90
44166;DHT22;30476;53.468;9.826;2023-12-20T03:55:17;6.60;99.90
44166;DHT22;30476;53.468;9.826;2023-12-20T03:57:42;6.70;99.90
44166;DHT22;30476;53.468;9.826;2023-12-20T04:00:09;6.70;99.90
44166;DHT22;30476;53.468;9.826;2023-12-20T04:02:40;6.60;99.90
44166;DHT22;30476;53.468;9.826;2023-12-20T04:05:07;6.60;99.90
44166;DHT22;30476;53.468;9.826;2023-12-20T04:07:33;6.70;99.90
44166;DHT22;30476;53.468;9.826;2023-12-20T04:09:59;6.70;99.90
44166;DHT22;30476;53.468;9.826;2023-12-20T04:12:24;6.70;99.90
44166;DHT22;30476;53.468;9.826;2023-12-20T04:14:50;6.70;99.90
44166;DHT22;30476;53.468;9.826;2023-12-20T04:17:16;6.70;99.90
44166;DHT22;30476;53.468;9.826;2023-12-20T04:19:42;6.70;99.90
44166;DHT22;30476;53.468;9.826;2023-12-20T04:22:08;6.70;99.90
44166;DHT22;30476;53.468;9.826;2023-12-20T04:24:34;6.70;99.90
44166;DHT22;30476;53.468;9.826;2023-12-20T04:27:00;6.60;99.90
44166;DHT22;30476;53.468;9.826;2023-12-20T04:29:26;6.70;99.90
44166;DHT22;30476;53.468;9.826;2023-12-20T04:31:51;6.60;99.90
44166;DHT22;30476;53.468;9.826;2023-12-20T04:34:18;6.70;99.90
44166;DHT22;30476;53.468;9.826;2023-12-20T04:36:44;6.70;99.90
44166;DHT22;30476;53.468;9.826;2023-12-20T04:39:11;6.70;99.90
44166;DHT22;30476;53.468;9.826;2023-12-20T04:41:36;6.70;99.90
44166;DHT22;30476;53.468;9.826;2023-12-20T04:44:02;6.70;99.90
44166;DHT22;30476;53.468;9.826;2023-12-20T04:46:28;6.70;99.90
44166;DHT22;30476;53.468;9.826;2023-12-20T04:48:54;6.70;99.90
44166;DHT22;30476;53.468;9.826;2023-12-20T04:51:19;6.70;99.90
44166;DHT22;30476;53.468;9.826;2023-12-20T04:53:45;6.80;99.90
44166;DHT22;30476;53.468;9.826;2023-12-20T04:56:11;6.80;99.90
44166;DHT22;30476;53.468;9.826;2023-12-20T04:58:37;6.70;99.90
44166;DHT22;30476;53.468;9.826;2023-12-20T05:01:04;6.80;99.90
44166;DHT22;30476;53.468;9.826;2023-12-20T05:03:31;6.80;99.90
44166;DHT22;30476;53.468;9.826;2023-12-20T05:05:56;6.80;99.90
44166;DHT22;30476;53.468;9.826;2023-12-20T05:08:22;6.80;99.90
44166;DHT22;30476;53.468;9.826;2023-12-20T05:10:48;6.80;99.90
44166;DHT22;30476;53.468;9.826;2023-12-20T05:13:13;6.80;99.90
44166;DHT22;30476;53.468;9.826;2023-12-20T05:15:39;6.80;99.90
44166;DHT22;30476;53.468;9.826;2023-12-20T05:18:05;6.90;99.90
44166;DHT22;30476;53.468;9.826;2023-12-20T05:20:30;6.90;99.90
44166;DHT22;30476;53.468;9.826;2023-12-20T05:22:56;6.80;99.90
44166;DHT22;30476;53.468;9.826;2023-12-20T05:25:22;6.80;99.90
44166;DHT22;30476;53.468;9.826;2023-12-20T05:27:47;6.90;99.90
44166;DHT22;30476;53.468;9.826;2023-12-20T05:30:13;6.90;99.90
44166;DHT22;30476;53.468;9.826;2023-12-20T05:32:39;6.90;99.90
44166;DHT22;30476;53.468;9.826;2023-12-20T05:35:06;6.90;99.90
44166;DHT22;30476;53.468;9.826;2023-12-20T05:37:32;6.90;99.90
44166;DHT22;30476;53.468;9.826;2023-12-20T05:39:58;6.90;99.90
44166;DHT22;30476;53.468;9.826;2023-12-20T05:42:24;6.90;99.90
44166;DHT22;30476;53.468;9.826;2023-12-20T05:44:49;6.90;99.90
44166;DHT22;30476;53.468;9.826;2023-12-20T05:47:15;6.90;99.90
44166;DHT22;30476;53.468;9.826;2023-12-20T05:49:40;6.90;99.90
44166;DHT22;30476;53.468;9.826;2023-12-20T05:52:06;6.90;99.90
44166;DHT22;30476;53.468;9.826;2023-12-20T05:54:32;6.90;99.90
44166;DHT22;30476;53.468;9.826;2023-12-20T05:56:58;6.90;99.90
44166;DHT22;30476;53.468;9.826;2023-12-20T05:59:23;6.90;99.90
44166;DHT22;30476;53.468;9.826;2023-12-20T06:01:49;6.90;99.90
44166;DHT22;30476;53.468;9.826;2023-12-20T06:04:15;6.90;99.90
44166;DHT22;30476;53.468;9.826;2023-12-20T06:06:44;6.90;99.90
44166;DHT22;30476;53.468;9.826;2023-12-20T06:09:10;7.00;99.90
44166;DHT22;30476;53.468;9.826;2023-12-20T06:11:36;7.00;99.90
44166;DHT22;30476;53.468;9.826;2023-12-20T06:14:02;7.00;99.90
44166;DHT22;30476;53.468;9.826;2023-12-20T06:16:28;7.00;99.90
44166;DHT22;30476;53.468;9.826;2023-12-20T06:18:54;7.00;99.90
44166;DHT22;30476;53.468;9.826;2023-12-20T06:21:19;7.00;99.90
44166;DHT22;30476;53.468;9.826;2023-12-20T06:23:45;6.90;99.90
44166;DHT22;30476;53.468;9.826;2023-12-20T06:26:11;7.00;99.90
44166;DHT22;30476;53.468;9.826;2023-12-20T06:28:37;6.90;99.90
44166;DHT22;30476;53.468;9.826;2023-12-20T06:31:03;6.90;99.90
44166;DHT22;30476;53.468;9.826;2023-12-20T06:33:29;7.00;99.90
44166;DHT22;30476;53.468;9.826;2023-12-20T06:35:56;7.00;99.90
44166;DHT22;30476;53.468;9.826;2023-12-20T06:38:22;6.90;99.90
44166;DHT22;30476;53.468;9.826;2023-12-20T06:40:47;7.00;99.90
44166;DHT22;30476;53.468;9.826;2023-12-20T06:43:13;7.00;99.90
44166;DHT22;30476;53.468;9.826;2023-12-20T06:45:39;7.00;99.90
44166;DHT22;30476;53.468;9.826;2023-12-20T06:48:05;7.00;99.90
44166;DHT22;30476;53.468;9.826;2023-12-20T06:50:31;7.00;99.90
44166;DHT22;30476;53.468;9.826;2023-12-20T06:52:57;7.00;99.90
44166;DHT22;30476;53.468;9.826;2023-12-20T06:55:22;7.00;99.90
44166;DHT22;30476;53.468;9.826;2023-12-20T06:57:48;7.00;99.90
44166;DHT22;30476;53.468;9.826;2023-12-20T07:00:14;7.10;99.90
44166;DHT22;30476;53.468;9.826;2023-12-20T07:02:40;7.00;99.90
44166;DHT22;30476;53.468;9.826;2023-12-20T07:05:06;7.10;99.90
44166;DHT22;30476;53.468;9.826;2023-12-20T07:07:32;7.10;99.90
44166;DHT22;30476;53.468;9.826;2023-12-20T07:09:58;7.10;99.90
44166;DHT22;30476;53.468;9.826;2023-12-20T07:12:24;7.00;99.90
44166;DHT22;30476;53.468;9.826;2023-12-20T07:14:49;7.10;99.90
44166;DHT22;30476;53.468;9.826;2023-12-20T07:17:15;7.10;99.90
44166;DHT22;30476;53.468;9.826;2023-12-20T07:19:42;7.10;99.90
44166;DHT22;30476;53.468;9.826;2023-12-20T07:22:08;7.00;99.90
44166;DHT22;30476;53.468;9.826;2023-12-20T07:24:34;7.00;99.90
44166;DHT22;30476;53.468;9.826;2023-12-20T07:27:00;7.00;99.90
44166;DHT22;30476;53.468;9.826;2023-12-20T07:29:26;7.10;99.90
44166;DHT22;30476;53.468;9.826;2023-12-20T07:31:53;7.10;99.90
44166;DHT22;30476;53.468;9.826;2023-12-20T07:34:22;7.00;99.90
44166;DHT22;30476;53.468;9.826;2023-12-20T07:36:47;7.00;99.90
44166;DHT22;30476;53.468;9.826;2023-12-20T07:39:14;7.10;99.90
44166;DHT22;30476;53.468;9.826;2023-12-20T07:41:40;7.10;99.90
44166;DHT22;30476;53.468;9.826;2023-12-20T07:44:07;7.10;99.90
44166;DHT22;30476;53.468;9.826;2023-12-20T07:46:33;7.10;99.90
44166;DHT22;30476;53.468;9.826;2023-12-20T07:48:58;7.10;99.90
44166;DHT22;30476;53.468;9.826;2023-12-20T07:51:24;7.10;99.90
44166;DHT22;30476;53.468;9.826;2023-12-20T07:53:51;7.10;99.90
44166;DHT22;30476;53.468;9.826;2023-12-20T07:56:18;7.10;99.90
44166;DHT22;30476;53.468;9.826;2023-12-20T07:58:45;7.20;99.90
44166;DHT22;30476;53.468;9.826;2023-12-20T08:01:11;7.20;99.90
44166;DHT22;30476;53.468;9.826;2023-12-20T08:03:38;7.20;99.90
44166;DHT22;30476;53.468;9.826;2023-12-20T08:06:04;7.30;99.90
44166;DHT22;30476;53.468;9.826;2023-12-20T08:08:30;7.20;99.90
44166;DHT22;30476;53.468;9.826;2023-12-20T08:10:56;7.20;99.90
44166;DHT22;30476;53.468;9.826;2023-12-20T08:13:24;7.20;99.90
44166;DHT22;30476;53.468;9.826;2023-12-20T08:15:52;7.20;99.90
44166;DHT22;30476;53.468;9.826;2023-12-20T08:18:17;7.30;99.90
44166;DHT22;30476;53.468;9.826;2023-12-20T08:20:43;7.30;99.90
44166;DHT22;30476;53.468;9.826;2023-12-20T08:23:08;7.30;99.90
44166;DHT22;30476;53.468;9.826;2023-12-20T08:25:34;7.30;99.90
44166;DHT22;30476;53.468;9.826;2023-12-20T08:28:02;7.30;99.90
44166;DHT22;30476;53.468;9.826;2023-12-20T08:30:28;7.30;99.90
44166;DHT22;30476;53.468;9.826;2023-12-20T08:32:55;7.30;99.90
44166;DHT22;30476;53.468;9.826;2023-12-20T08:35:21;7.30;99.90
44166;DHT22;30476;53.468;9.826;2023-12-20T08:37:46;7.30;99.90
44166;DHT22;30476;53.468;9.826;2023-12-20T08:40:12;7.30;99.90
44166;DHT22;30476;53.468;9.826;2023-12-20T08:42:37;7.30;99.90
44166;DHT22;30476;53.468;9.826;2023-12-20T08:45:03;7.40;99.90
44166;DHT22;30476;53.468;9.826;2023-12-20T08:47:30;7.40;99.90
44166;DHT22;30476;53.468;9.826;2023-12-20T08:49:55;7.40;99.90
44166;DHT22;30476;53.468;9.826;2023-12-20T08:52:25;7.40;99.90
44166;DHT22;30476;53.468;9.826;2023-12-20T08:54:53;7.50;99.90
44166;DHT22;30476;53.468;9.826;2023-12-20T08:57:20;7.40;99.90
44166;DHT22;30476;53.468;9.826;2023-12-20T08:59:47;7.40;99.90
44166;DHT22;30476;53.468;9.826;2023-12-20T09:02:14;7.40;99.90
44166;DHT22;30476;53.468;9.826;2023-12-20T09:04:39;7.40;99.90
44166;DHT22;30476;53.468;9.826;2023-12-20T09:07:05;7.40;99.90
44166;DHT22;30476;53.468;9.826;2023-12-20T09:09:31;7.40;99.90
44166;DHT22;30476;53.468;9.826;2023-12-20T09:11:57;7.40;99.90
44166;DHT22;30476;53.468;9.826;2023-12-20T09:14:23;7.40;99.90
44166;DHT22;30476;53.468;9.826;2023-12-20T09:16:49;7.40;99.90
44166;DHT22;30476;53.468;9.826;2023-12-20T09:19:17;7.30;99.90
44166;DHT22;30476;53.468;9.826;2023-12-20T09:21:43;7.40;99.90
44166;DHT22;30476;53.468;9.826;2023-12-20T09:24:09;7.30;99.90
44166;DHT22;30476;53.468;9.826;2023-12-20T09:26:35;7.30;99.90
44166;DHT22;30476;53.468;9.826;2023-12-20T09:29:00;7.20;99.90
44166;DHT22;30476;53.468;9.826;2023-12-20T09:31:26;7.20;99.90
44166;DHT22;30476;53.468;9.826;2023-12-20T09:33:52;7.20;99.90
44166;DHT22;30476;53.468;9.826;2023-12-20T09:36:18;7.10;99.90
44166;DHT22;30476;53.468;9.826;2023-12-20T09:38:44;7.10;99.90
44166;DHT22;30476;53.468;9.826;2023-12-20T09:41:10;7.10;99.90
44166;DHT22;30476;53.468;9.826;2023-12-20T09:43:37;7.10;99.90
44166;DHT22;30476;53.468;9.826;2023-12-20T09:46:06;7.10;99.90
44166;DHT22;30476;53.468;9.826;2023-12-20T09:48:33;7.10;99.90
44166;DHT22;30476;53.468;9.826;2023-12-20T09:51:00;7.00;99.90
44166;DHT22;30476;53.468;9.826;2023-12-20T09:53:26;7.10;99.90
44166;DHT22;30476;53.468;9.826;2023-12-20T09:55:58;7.10;99.90
44166;DHT22;30476;53.468;9.826;2023-12-20T09:58:25;7.10;99.90
44166;DHT22;30476;53.468;9.826;2023-12-20T10:00:50;7.20;99.90
44166;DHT22;30476;53.468;9.826;2023-12-20T10:03:17;7.20;99.90
44166;DHT22;30476;53.468;9.826;2023-12-20T10:05:44;7.20;99.90
44166;DHT22;30476;53.468;9.826;2023-12-20T10:08:10;7.20;99.90
44166;DHT22;30476;53.468;9.826;2023-12-20T10:10:36;7.20;99.90
44166;DHT22;30476;53.468;9.826;2023-12-20T10:15:35;7.20;99.90
44166;DHT22;30476;53.468;9.826;2023-12-20T10:18:04;7.20;99.90
44166;DHT22;30476;53.468;9.826;2023-12-20T10:20:31;7.20;99.90
44166;DHT22;30476;53.468;9.826;2023-12-20T10:22:57;7.20;99.90
44166;DHT22;30476;53.468;9.826;2023-12-20T10:25:23;7.20;99.90
44166;DHT22;30476;53.468;9.826;2023-12-20T10:27:50;7.20;99.90
44166;DHT22;30476;53.468;9.826;2023-12-20T10:30:16;7.10;99.90
44166;DHT22;30476;53.468;9.826;2023-12-20T10:32:43;7.10;99.90
44166;DHT22;30476;53.468;9.826;2023-12-20T10:35:09;7.10;99.90
44166;DHT22;30476;53.468;9.826;2023-12-20T10:37:36;7.10;99.90
44166;DHT22;30476;53.468;9.826;2023-12-20T10:40:04;7.10;99.90
44166;DHT22;30476;53.468;9.826;2023-12-20T10:42:32;7.00;99.90
44166;DHT22;30476;53.468;9.826;2023-12-20T10:45:00;7.00;99.90
44166;DHT22;30476;53.468;9.826;2023-12-20T10:47:26;7.00;99.90
44166;DHT22;30476;53.468;9.826;2023-12-20T10:49:54;7.00;99.90
44166;DHT22;30476;53.468;9.826;2023-12-20T10:52:23;6.90;99.90
44166;DHT22;30476;53.468;9.826;2023-12-20T10:54:50;7.00;99.90
44166;DHT22;30476;53.468;9.826;2023-12-20T10:57:18;7.00;99.90
44166;DHT22;30476;53.468;9.826;2023-12-20T10:59:45;7.00;99.90
44166;DHT22;30476;53.468;9.826;2023-12-20T11:02:13;7.00;99.90
44166;DHT22;30476;53.468;9.826;2023-12-20T11:04:47;7.00;99.90
44166;DHT22;30476;53.468;9.826;2023-12-20T11:07:21;6.90;99.90
44166;DHT22;30476;53.468;9.826;2023-12-20T11:10:13;7.00;99.90
44166;DHT22;30476;53.468;9.826;2023-12-20T11:12:48;6.90;99.90
44166;DHT22;30476;53.468;9.826;2023-12-20T11:15:16;7.00;99.90
44166;DHT22;30476;53.468;9.826;2023-12-20T11:17:44;7.00;99.90
44166;DHT22;30476;53.468;9.826;2023-12-20T11:20:10;7.00;99.90
44166;DHT22;30476;53.468;9.826;2023-12-20T11:22:37;7.00;99.90
44166;DHT22;30476;53.468;9.826;2023-12-20T11:25:09;7.00;99.90
44166;DHT22;30476;53.468;9.826;2023-12-20T11:27:42;7.00;99.90
44166;DHT22;30476;53.468;9.826;2023-12-20T11:30:11;6.90;99.90
44166;DHT22;30476;53.468;9.826;2023-12-20T11:32:37;6.90;99.90
44166;DHT22;30476;53.468;9.826;2023-12-20T11:37:38;6.90;99.90
44166;DHT22;30476;53.468;9.826;2023-12-20T11:40:12;6.90;99.90
44166;DHT22;30476;53.468;9.826;2023-12-20T11:42:40;6.90;99.90
44166;DHT22;30476;53.468;9.826;2023-12-20T11:45:18;6.90;99.90
44166;DHT22;30476;53.468;9.826;2023-12-20T11:47:49;7.00;99.90
44166;DHT22;30476;53.468;9.826;2023-12-20T11:50:22;7.10;99.90
44166;DHT22;30476;53.468;9.826;2023-12-20T11:52:49;7.10;99.90
44166;DHT22;30476;53.468;9.826;2023-12-20T11:55:15;7.20;99.90
44166;DHT22;30476;53.468;9.826;2023-12-20T11:57:41;7.30;99.90
44166;DHT22;30476;53.468;9.826;2023-12-20T12:00:08;7.40;99.90
44166;DHT22;30476;53.468;9.826;2023-12-20T12:02:34;7.50;99.90
44166;DHT22;30476;53.468;9.826;2023-12-20T12:05:00;7.60;99.90
44166;DHT22;30476;53.468;9.826;2023-12-20T12:07:26;7.60;99.90
44166;DHT22;30476;53.468;9.826;2023-12-20T12:09:51;7.70;99.90
44166;DHT22;30476;53.468;9.826;2023-12-20T12:12:18;7.70;99.90
44166;DHT22;30476;53.468;9.826;2023-12-20T12:14:45;7.70;99.90
44166;DHT22;30476;53.468;9.826;2023-12-20T12:17:15;7.80;99.90
44166;DHT22;30476;53.468;9.826;2023-12-20T12:19:42;7.80;99.90
44166;DHT22;30476;53.468;9.826;2023-12-20T12:22:09;7.80;99.90
44166;DHT22;30476;53.468;9.826;2023-12-20T12:24:43;7.70;99.90
44166;DHT22;30476;53.468;9.826;2023-12-20T12:27:11;7.70;99.90
44166;DHT22;30476;53.468;9.826;2023-12-20T12:29:37;7.70;99.90
44166;DHT22;30476;53.468;9.826;2023-12-20T12:32:07;7.60;99.90
44166;DHT22;30476;53.468;9.826;2023-12-20T12:34:34;7.60;99.90
44166;DHT22;30476;53.468;9.826;2023-12-20T12:37:00;7.60;99.90
44166;DHT22;30476;53.468;9.826;2023-12-20T12:39:26;7.60;99.90
44166;DHT22;30476;53.468;9.826;2023-12-20T12:41:53;7.60;99.90
44166;DHT22;30476;53.468;9.826;2023-12-20T12:44:19;7.50;99.90
44166;DHT22;30476;53.468;9.826;2023-12-20T12:46:46;7.50;99.90
44166;DHT22;30476;53.468;9.826;2023-12-20T12:49:12;7.50;99.90
44166;DHT22;30476;53.468;9.826;2023-12-20T12:51:38;7.50;99.90
44166;DHT22;30476;53.468;9.826;2023-12-20T12:54:04;7.40;99.90
44166;DHT22;30476;53.468;9.826;2023-12-20T12:56:30;7.40;99.90
44166;DHT22;30476;53.468;9.826;2023-12-20T12:58:56;7.40;99.90
44166;DHT22;30476;53.468;9.826;2023-12-20T13:01:22;7.40;99.90
44166;DHT22;30476;53.468;9.826;2023-12-20T13:03:47;7.40;99.90
44166;DHT22;30476;53.468;9.826;2023-12-20T13:06:13;7.40;99.90
44166;DHT22;30476;53.468;9.826;2023-12-20T13:08:39;7.40;99.90
44166;DHT22;30476;53.468;9.826;2023-12-20T13:11:05;7.40;99.90
44166;DHT22;30476;53.468;9.826;2023-12-20T13:13:31;7.40;99.90
44166;DHT22;30476;53.468;9.826;2023-12-20T13:15:57;7.40;99.90
44166;DHT22;30476;53.468;9.826;2023-12-20T13:18:23;7.40;99.90
44166;DHT22;30476;53.468;9.826;2023-12-20T13:20:49;7.40;99.90
44166;DHT22;30476;53.468;9.826;2023-12-20T13:23:15;7.40;99.90
44166;DHT22;30476;53.468;9.826;2023-12-20T13:25:44;7.40;99.90
44166;DHT22;30476;53.468;9.826;2023-12-20T13:28:13;7.40;99.90
44166;DHT22;30476;53.468;9.826;2023-12-20T13:30:39;7.40;99.90
44166;DHT22;30476;53.468;9.826;2023-12-20T13:33:05;7.40;99.90
44166;DHT22;30476;53.468;9.826;2023-12-20T13:35:32;7.40;99.90
44166;DHT22;30476;53.468;9.826;2023-12-20T13:38:00;7.50;99.90
44166;DHT22;30476;53.468;9.826;2023-12-20T13:40:26;7.40;99.90
44166;DHT22;30476;53.468;9.826;2023-12-20T13:42:52;7.40;99.90
44166;DHT22;30476;53.468;9.826;2023-12-20T13:45:18;7.40;99.90
44166;DHT22;30476;53.468;9.826;2023-12-20T13:47:44;7.40;99.90
44166;DHT22;30476;53.468;9.826;2023-12-20T13:50:10;7.50;99.90
44166;DHT22;30476;53.468;9.826;2023-12-20T13:52:35;7.50;99.90
44166;DHT22;30476;53.468;9.826;2023-12-20T13:55:02;7.50;99.90
44166;DHT22;30476;53.468;9.826;2023-12-20T13:57:27;7.50;99.90
44166;DHT22;30476;53.468;9.826;2023-12-20T13:59:55;7.60;99.90
44166;DHT22;30476;53.468;9.826;2023-12-20T14:02:23;7.50;99.90
44166;DHT22;30476;53.468;9.826;2023-12-20T14:04:49;7.50;99.90
44166;DHT22;30476;53.468;9.826;2023-12-20T14:07:15;7.50;99.90
44166;DHT22;30476;53.468;9.826;2023-12-20T14:09:41;7.50;99.90
44166;DHT22;30476;53.468;9.826;2023-12-20T14:12:13;7.50;99.90
44166;DHT22;30476;53.468;9.826;2023-12-20T14:14:39;7.50;99.90
44166;DHT22;30476;53.468;9.826;2023-12-20T14:17:05;7.40;99.90
44166;DHT22;30476;53.468;9.826;2023-12-20T14:19:34;7.40;99.90
44166;DHT22;30476;53.468;9.826;2023-12-20T14:22:00;7.30;99.90
44166;DHT22;30476;53.468;9.826;2023-12-20T14:24:27;7.40;99.90
44166;DHT22;30476;53.468;9.826;2023-12-20T14:26:53;7.30;99.90
44166;DHT22;30476;53.468;9.826;2023-12-20T14:29:19;7.20;99.90
44166;DHT22;30476;53.468;9.826;2023-12-20T14:31:45;7.20;99.90
44166;DHT22;30476;53.468;9.826;2023-12-20T14:34:11;7.20;99.90
44166;DHT22;30476;53.468;9.826;2023-12-20T14:36:37;7.20;99.90
44166;DHT22;30476;53.468;9.826;2023-12-20T14:39:03;7.20;99.90
44166;DHT22;30476;53.468;9.826;2023-12-20T14:41:30;7.20;99.90
44166;DHT22;30476;53.468;9.826;2023-12-20T14:43:56;7.20;99.90
44166;DHT22;30476;53.468;9.826;2023-12-20T14:46:22;7.20;99.90
44166;DHT22;30476;53.468;9.826;2023-12-20T14:48:48;7.20;99.90
44166;DHT22;30476;53.468;9.826;2023-12-20T14:51:15;7.20;99.90
44166;DHT22;30476;53.468;9.826;2023-12-20T14:53:41;7.20;99.90
44166;DHT22;30476;53.468;9.826;2023-12-20T14:56:07;7.20;99.90
44166;DHT22;30476;53.468;9.826;2023-12-20T14:58:33;7.10;99.90
44166;DHT22;30476;53.468;9.826;2023-12-20T15:01:00;7.20;99.90
44166;DHT22;30476;53.468;9.826;2023-12-20T15:03:26;7.10;99.90
44166;DHT22;30476;53.468;9.826;2023-12-20T15:05:51;7.10;99.90
44166;DHT22;30476;53.468;9.826;2023-12-20T15:08:17;7.00;99.90
44166;DHT22;30476;53.468;9.826;2023-12-20T15:10:42;7.00;99.90
44166;DHT22;30476;53.468;9.826;2023-12-20T15:13:08;7.00;99.90
44166;DHT22;30476;53.468;9.826;2023-12-20T15:15:33;7.00;99.90
44166;DHT22;30476;53.468;9.826;2023-12-20T15:18:00;7.00;99.90
44166;DHT22;30476;53.468;9.826;2023-12-20T15:20:26;6.90;99.90
44166;DHT22;30476;53.468;9.826;2023-12-20T15:22:51;7.00;99.90
44166;DHT22;30476;53.468;9.826;2023-12-20T15:25:18;6.90;99.90
44166;DHT22;30476;53.468;9.826;2023-12-20T15:27:50;6.90;99.90
44166;DHT22;30476;53.468;9.826;2023-12-20T15:30:20;6.90;99.90
44166;DHT22;30476;53.468;9.826;2023-12-20T15:32:46;6.90;99.90
44166;DHT22;30476;53.468;9.826;2023-12-20T15:35:11;6.90;99.90
44166;DHT22;30476;53.468;9.826;2023-12-20T15:37:40;6.90;99.90
44166;DHT22;30476;53.468;9.826;2023-12-20T15:40:09;6.90;99.90
44166;DHT22;30476;53.468;9.826;2023-12-20T15:42:39;6.90;99.90
44166;DHT22;30476;53.468;9.826;2023-12-20T15:45:06;6.80;99.90